sensor_id;sensor_type;location;lat;lon;timestamp;temperature;humidity
36690;DHT22;22676;51.120;3.702;2023-12-28T10:42:55;22.50;49.70
36690;DHT22;22676;51.120;3.702;2023-12-28T17:48:05;22.80;50.90
36690;DHT22;22676;51.120;3.702;2023-12-28T17:51:30;22.80;51.20
36690;DHT22;22676;51.120;3.702;2023-12-28T17:54:56;22.90;50.90
36690;DHT22;22676;51.120;3.702;2023-12-28T17:58:21;22.90;50.80
36690;DHT22;22676;51.120;3.702;2023-12-28T18:01:47;22.90;50.90
36690;DHT22;22676;51.120;3.702;2023-12-28T18:05:12;22.90;51.00
36690;DHT22;22676;51.120;3.702;2023-12-28T18:08:37;23.00;50.80
36690;DHT22;22676;51.120;3.702;2023-12-28T18:12:03;23.00;51.10
36690;DHT22;22676;51.120;3.702;2023-12-28T18:15:28;23.00;51.10
36690;DHT22;22676;51.120;3.702;2023-12-28T18:18:54;22.90;51.10
36690;DHT22;22676;51.120;3.702;2023-12-28T18:22:19;22.90;51.10
36690;DHT22;22676;51.120;3.702;2023-12-28T18:25:45;22.90;51.10
36690;DHT22;22676;51.120;3.702;2023-12-28T18:29:10;22.90;51.10
36690;DHT22;22676;51.120;3.702;2023-12-28T18:32:36;22.80;51.00
36690;DHT22;22676;51.120;3.702;2023-12-28T18:36:01;22.80;51.00
36690;DHT22;22676;51.120;3.702;2023-12-28T18:39:26;22.80;50.30
36690;DHT22;22676;51.120;3.702;2023-12-28T18:42:52;22.80;50.70
36690;DHT22;22676;51.120;3.702;2023-12-28T18:46:17;22.80;51.10
36690;DHT22;22676;51.120;3.702;2023-12-28T18:49:43;22.70;51.10
36690;DHT22;22676;51.120;3.702;2023-12-28T19:52:39;22.80;51.80
36690;DHT22;22676;51.120;3.702;2023-12-28T19:55:05;22.80;51.80
36690;DHT22;22676;51.120;3.702;2023-12-28T19:57:31;22.80;51.50
36690;DHT22;22676;51.120;3.702;2023-12-28T19:59:56;22.90;51.60
36690;DHT22;22676;51.120;3.702;2023-12-28T20:02:22;22.90;51.20
36690;DHT22;22676;51.120;3.702;2023-12-28T20:04:51;22.90;51.10
36690;DHT22;22676;51.120;3.702;2023-12-28T20:07:18;23.00;51.10
36690;DHT22;22676;51.120;3.702;2023-12-28T20:09:44;23.00;50.90
36690;DHT22;22676;51.120;3.702;2023-12-28T20:12:10;23.00;51.10
36690;DHT22;22676;51.120;3.702;2023-12-28T20:14:35;23.00;50.90
36690;DHT22;22676;51.120;3.702;2023-12-28T20:17:01;23.00;50.90
36690;DHT22;22676;51.120;3.702;2023-12-28T20:19:27;23.00;51.10
36690;DHT22;22676;51.120;3.702;2023-12-28T20:21:52;23.00;50.90
36690;DHT22;22676;51.120;3.702;2023-12-28T20:24:19;23.00;51.10
36690;DHT22;22676;51.120;3.702;2023-12-28T20:26:46;23.00;51.30
36690;DHT22;22676;51.120;3.702;2023-12-28T20:29:12;23.00;51.20
36690;DHT22;22676;51.120;3.702;2023-12-28T20:31:38;23.00;51.20
36690;DHT22;22676;51.120;3.702;2023-12-28T20:34:04;22.90;51.30
36690;DHT22;22676;51.120;3.702;2023-12-28T20:36:29;22.90;51.20
36690;DHT22;22676;51.120;3.702;2023-12-28T20:38:55;22.90;51.00
36690;DHT22;22676;51.120;3.702;2023-12-28T20:41:21;22.90;51.30
36690;DHT22;22676;51.120;3.702;2023-12-28T20:43:47;22.90;51.30
36690;DHT22;22676;51.120;3.702;2023-12-28T20:46:15;22.80;51.10
36690;DHT22;22676;51.120;3.702;2023-12-28T20:48:41;22.80;50.90
36690;DHT22;22676;51.120;3.702;2023-12-28T20:51:08;22.80;51.20
36690;DHT22;22676;51.120;3.702;2023-12-28T20:53:34;22.80;51.40
36690;DHT22;22676;51.120;3.702;2023-12-28T20:56:00;22.80;51.30
36690;DHT22;22676;51.120;3.702;2023-12-28T20:58:26;22.70;51.60
36690;DHT22;22676;51.120;3.702;2023-12-28T21:00:52;22.80;51.60
36690;DHT22;22676;51.120;3.702;2023-12-28T21:03:18;22.70;51.10
36690;DHT22;22676;51.120;3.702;2023-12-28T21:05:43;22.70;50.30
36690;DHT22;22676;51.120;3.702;2023-12-28T21:08:09;22.70;50.40
36690;DHT22;22676;51.120;3.702;2023-12-28T21:10:35;22.60;49.90
36690;DHT22;22676;51.120;3.702;2023-12-28T21:13:03;22.60;49.20
36690;DHT22;22676;51.120;3.702;2023-12-28T21:15:33;22.70;49.50
36690;DHT22;22676;51.120;3.702;2023-12-28T21:17:59;22.70;49.50
36690;DHT22;22676;51.120;3.702;2023-12-28T21:20:26;22.70;49.70
36690;DHT22;22676;51.120;3.702;2023-12-28T21:22:53;22.70;49.30
36690;DHT22;22676;51.120;3.702;2023-12-28T21:25:19;22.70;48.80
36690;DHT22;22676;51.120;3.702;2023-12-28T21:27:45;22.70;48.90
36690;DHT22;22676;51.120;3.702;2023-12-28T21:30:11;22.70;48.10
36690;DHT22;22676;51.120;3.702;2023-12-28T21:32:37;22.70;48.00
36690;DHT22;22676;51.120;3.702;2023-12-28T21:35:03;22.70;48.70
36690;DHT22;22676;51.120;3.702;2023-12-28T21:37:29;22.70;48.50
36690;DHT22;22676;51.120;3.702;2023-12-28T21:39:55;22.70;48.70
36690;DHT22;22676;51.120;3.702;2023-12-28T21:42:21;22.70;48.60
36690;DHT22;22676;51.120;3.702;2023-12-28T21:44:47;22.70;48.60
36690;DHT22;22676;51.120;3.702;2023-12-28T21:47:13;22.60;48.80
36690;DHT22;22676;51.120;3.702;2023-12-28T21:49:43;22.70;49.20
36690;DHT22;22676;51.120;3.702;2023-12-28T21:52:09;22.70;49.30
36690;DHT22;22676;51.120;3.702;2023-12-28T21:54:36;22.70;49.20
36690;DHT22;22676;51.120;3.702;2023-12-28T21:57:02;22.70;49.50
36690;DHT22;22676;51.120;3.702;2023-12-28T21:59:28;22.70;49.80
36690;DHT22;22676;51.120;3.702;2023-12-28T22:01:54;22.70;50.00
36690;DHT22;22676;51.120;3.702;2023-12-28T22:04:20;22.70;50.80
36690;DHT22;22676;51.120;3.702;2023-12-28T22:06:47;22.70;50.30
36690;DHT22;22676;51.120;3.702;2023-12-28T22:09:12;22.80;50.50
36690;DHT22;22676;51.120;3.702;2023-12-28T22:11:38;22.80;50.70
36690;DHT22;22676;51.120;3.702;2023-12-28T22:14:04;22.80;50.20
36690;DHT22;22676;51.120;3.702;2023-12-28T22:16:29;22.80;49.80
36690;DHT22;22676;51.120;3.702;2023-12-28T22:18:55;22.80;49.90
36690;DHT22;22676;51.120;3.702;2023-12-28T22:21:21;22.70;50.20
36690;DHT22;22676;51.120;3.702;2023-12-28T22:23:46;22.70;50.10
36690;DHT22;22676;51.120;3.702;2023-12-28T22:26:12;22.70;50.30
36690;DHT22;22676;51.120;3.702;2023-12-28T22:28:39;22.70;50.10
36690;DHT22;22676;51.120;3.702;2023-12-28T22:31:05;22.70;49.70
36690;DHT22;22676;51.120;3.702;2023-12-28T22:33:31;22.70;49.60
36690;DHT22;22676;51.120;3.702;2023-12-28T22:35:57;22.70;49.60
36690;DHT22;22676;51.120;3.702;2023-12-28T22:38:23;22.70;49.40
36690;DHT22;22676;51.120;3.702;2023-12-28T22:40:49;22.70;49.20
36690;DHT22;22676;51.120;3.702;2023-12-28T22:43:15;22.70;49.20
36690;DHT22;22676;51.120;3.702;2023-12-28T22:45:41;22.60;48.40
36690;DHT22;22676;51.120;3.702;2023-12-28T22:48:07;22.60;48.20
36690;DHT22;22676;51.120;3.702;2023-12-28T22:50:32;22.60;47.90
36690;DHT22;22676;51.120;3.702;2023-12-28T22:52:59;22.60;48.10
36690;DHT22;22676;51.120;3.702;2023-12-28T22:55:24;22.60;47.90
36690;DHT22;22676;51.120;3.702;2023-12-28T22:57:50;22.60;47.50
36690;DHT22;22676;51.120;3.702;2023-12-28T23:00:20;22.50;47.80
36690;DHT22;22676;51.120;3.702;2023-12-28T23:02:47;22.50;47.80
36690;DHT22;22676;51.120;3.702;2023-12-28T23:05:12;22.50;47.40
36690;DHT22;22676;51.120;3.702;2023-12-28T23:07:41;22.40;47.70
36690;DHT22;22676;51.120;3.702;2023-12-28T23:10:07;22.50;47.60
36690;DHT22;22676;51.120;3.702;2023-12-28T23:12:33;22.50;47.50
36690;DHT22;22676;51.120;3.702;2023-12-28T23:14:59;22.50;47.30
36690;DHT22;22676;51.120;3.702;2023-12-28T23:17:24;22.40;47.50
36690;DHT22;22676;51.120;3.702;2023-12-28T23:19:50;22.40;47.50
36690;DHT22;22676;51.120;3.702;2023-12-28T23:22:16;22.40;47.20
36690;DHT22;22676;51.120;3.702;2023-12-28T23:24:42;22.30;47.20
36690;DHT22;22676;51.120;3.702;2023-12-28T23:27:09;22.30;47.30
36690;DHT22;22676;51.120;3.702;2023-12-28T23:29:38;22.30;47.40
36690;DHT22;22676;51.120;3.702;2023-12-28T23:32:04;22.20;47.30
36690;DHT22;22676;51.120;3.702;2023-12-28T23:34:30;22.20;47.90
36690;DHT22;22676;51.120;3.702;2023-12-28T23:36:55;22.20;48.00
36690;DHT22;22676;51.120;3.702;2023-12-28T23:39:21;22.20;47.90
36690;DHT22;22676;51.120;3.702;2023-12-28T23:41:47;22.20;47.80
36690;DHT22;22676;51.120;3.702;2023-12-28T23:44:12;22.20;48.10
36690;DHT22;22676;51.120;3.702;2023-12-28T23:46:38;22.20;48.00
36690;DHT22;22676;51.120;3.702;2023-12-28T23:49:04;22.20;48.00
36690;DHT22;22676;51.120;3.702;2023-12-28T23:51:30;22.30;48.10
36690;DHT22;22676;51.120;3.702;2023-12-28T23:53:56;22.30;48.30
36690;DHT22;22676;51.120;3.702;2023-12-28T23:56:22;22.20;48.10
36690;DHT22;22676;51.120;3.702;2023-12-28T23:58:48;22.20;48.20
